Time;durP1;ratioP1;P1;durP2;ratioP2;P2;SDS_P1;SDS_P2;PMS_P1;PMS_P2;Temp;Humidity;BMP_temperature;BMP_pressure;BME280_temperature;BME280_humidity;BME280_pressure;Samples;Min_cycle;Max_cycle;Signal;HPM_P1;HPM_P2
2021/04/09 00:02:24;;;;;;;16.37;11.93;;;;;3.30;101182.00;;;;9694192;30;20604;-79
2021/04/09 00:07:27;;;;;;;14.40;10.97;;;;;3.10;101174.00;;;;9673238;30;20756;-79
2021/04/09 00:12:32;;;;;;;15.57;11.70;;;;;3.00;101169.00;;;;9670553;30;20251;-79
2021/04/09 00:17:34;;;;;;;17.17;11.83;;;;;3.00;101174.00;;;;9673266;30;20243;-79
2021/04/09 00:22:35;;;;;;;19.23;11.93;;;;;3.10;101157.00;;;;9682830;30;20212;-79
2021/04/09 00:27:36;;;;;;;18.47;11.67;;;;;3.20;101167.00;;;;9660738;30;20236;-79
2021/04/09 00:32:38;;;;;;;19.37;12.40;;;;;3.30;101162.00;;;;9684551;30;20271;-79
2021/04/09 00:37:39;;;;;;;18.97;11.93;;;;;3.30;101150.00;;;;9681202;30;20215;-79
2021/04/09 00:42:42;;;;;;;16.97;12.77;;;;;3.40;101143.00;;;;9689819;30;20192;-79
2021/04/09 00:47:44;;;;;;;17.77;11.50;;;;;3.40;101134.00;;;;9676243;30;20207;-78
2021/04/09 00:52:46;;;;;;;15.27;10.53;;;;;3.40;101131.00;;;;9689824;30;20755;-79
2021/04/09 00:57:51;;;;;;;16.10;10.47;;;;;3.50;101132.00;;;;9686327;30;20717;-78
2021/04/09 01:02:53;;;;;;;15.30;11.00;;;;;3.50;101124.00;;;;9677616;30;20226;-78
2021/04/09 01:07:54;;;;;;;16.93;10.13;;;;;3.50;101116.00;;;;9698839;30;20200;-79
2021/04/09 01:12:57;;;;;;;14.83;10.33;;;;;3.40;101112.00;;;;9705499;30;20220;-79
2021/04/09 01:18:02;;;;;;;20.93;9.63;;;;;3.40;101102.00;;;;9685053;30;20204;-79
2021/04/09 01:23:26;;;;;;;20.03;10.27;;;;;3.50;101081.00;;;;9666306;30;20204;-78
2021/04/09 01:28:31;;;;;;;17.63;9.80;;;;;3.40;101079.00;;;;9695747;30;20258;-78
2021/04/09 01:33:36;;;;;;;15.53;9.53;;;;;3.40;101088.00;;;;9686417;30;20228;-78
2021/04/09 01:38:43;;;;;;;19.97;10.60;;;;;3.30;101083.00;;;;9688552;30;20708;-79
2021/04/09 01:43:46;;;;;;;14.47;9.13;;;;;3.30;101075.00;;;;9695548;30;20235;-79
2021/04/09 01:48:49;;;;;;;12.20;9.13;;;;;3.30;101073.00;;;;9694810;30;20321;-79
2021/04/09 01:53:51;;;;;;;15.20;9.47;;;;;3.40;101067.00;;;;9695214;30;20397;-79
2021/04/09 01:58:53;;;;;;;13.17;8.17;;;;;3.40;101063.00;;;;9684118;30;20225;-79
2021/04/09 02:03:55;;;;;;;14.50;8.80;;;;;3.50;101077.00;;;;9712097;30;20659;-79
2021/04/09 02:08:57;;;;;;;15.13;9.03;;;;;3.70;101063.00;;;;9702097;30;20208;-79
2021/04/09 02:14:01;;;;;;;14.87;8.57;;;;;4.00;101061.00;;;;9674641;30;20250;-79
2021/04/09 02:19:04;;;;;;;12.63;7.97;;;;;4.20;101053.00;;;;9703007;30;20200;-78
2021/04/09 02:24:07;;;;;;;12.63;9.17;;;;;4.20;101047.00;;;;9704298;30;20208;-78
2021/04/09 02:29:09;;;;;;;14.50;9.57;;;;;4.20;101046.00;;;;9714819;30;20208;-79
2021/04/09 02:34:10;;;;;;;19.63;9.37;;;;;4.20;101044.00;;;;9689020;30;20235;-79
2021/04/09 02:39:20;;;;;;;14.37;8.93;;;;;4.20;101036.00;;;;9697166;30;20243;-79
2021/04/09 02:44:21;;;;;;;14.10;8.27;;;;;4.10;101033.00;;;;9675640;30;20846;-79
2021/04/09 02:49:26;;;;;;;12.40;8.23;;;;;4.00;101034.00;;;;9712995;30;20519;-78
2021/04/09 02:54:30;;;;;;;18.47;8.77;;;;;3.90;101025.00;;;;9685695;30;20219;-79
2021/04/09 02:59:32;;;;;;;16.03;8.83;;;;;3.80;101023.00;;;;9687366;30;20208;-78
2021/04/09 03:04:34;;;;;;;13.43;8.57;;;;;3.70;101015.00;;;;9678078;30;20221;-79
2021/04/09 03:09:37;;;;;;;19.90;9.23;;;;;3.60;101007.00;;;;9686360;30;20212;-78
2021/04/09 03:14:41;;;;;;;17.83;8.37;;;;;3.60;101013.00;;;;9668245;30;20697;-79
2021/04/09 03:19:42;;;;;;;11.20;7.67;;;;;3.60;101008.00;;;;9693821;30;20212;-78
2021/04/09 03:24:44;;;;;;;15.30;9.07;;;;;3.50;101006.00;;;;9694469;30;20224;-79
2021/04/09 03:29:45;;;;;;;13.03;8.53;;;;;3.50;101002.00;;;;9696006;30;20208;-79
2021/04/09 03:34:46;;;;;;;15.57;8.37;;;;;3.40;100995.00;;;;9668878;30;20251;-78
2021/04/09 03:39:48;;;;;;;16.63;8.10;;;;;3.50;100996.00;;;;9678274;30;20216;-79
2021/04/09 03:44:50;;;;;;;11.30;7.37;;;;;3.60;100991.00;;;;9690425;30;20200;-78
2021/04/09 03:49:52;;;;;;;13.43;8.43;;;;;3.60;100991.00;;;;9674060;30;20294;-79
2021/04/09 03:54:57;;;;;;;12.03;7.97;;;;;3.60;100986.00;;;;9691985;30;20740;-78
2021/04/09 03:59:59;;;;;;;14.47;8.30;;;;;3.50;100988.00;;;;9678490;30;20222;-79
2021/04/09 04:05:03;;;;;;;14.97;9.07;;;;;3.50;100985.00;;;;9691532;30;20339;-79
2021/04/09 04:10:09;;;;;;;14.57;8.27;;;;;3.40;100987.00;;;;9697513;30;20557;-78
2021/04/09 04:15:10;;;;;;;15.77;8.30;;;;;3.40;100993.00;;;;9695214;30;20215;-78
2021/04/09 04:20:12;;;;;;;16.93;9.27;;;;;3.30;100980.00;;;;9704576;30;20216;-78
2021/04/09 04:25:14;;;;;;;18.37;8.73;;;;;3.20;100986.00;;;;9708205;30;20231;-78
2021/04/09 04:30:16;;;;;;;18.17;8.80;;;;;3.20;100979.00;;;;9666647;30;20428;-78
2021/04/09 04:35:17;;;;;;;14.73;8.93;;;;;3.10;100986.00;;;;9688229;30;20310;-78
2021/04/09 04:40:18;;;;;;;22.27;10.53;;;;;3.00;100983.00;;;;9678496;30;20199;-78
2021/04/09 04:45:20;;;;;;;16.90;9.17;;;;;2.90;100976.00;;;;9694403;30;20750;-78
2021/04/09 04:50:21;;;;;;;16.30;8.50;;;;;2.70;100974.00;;;;9677972;30;20659;-78
2021/04/09 04:55:23;;;;;;;14.53;9.17;;;;;2.60;100976.00;;;;9679029;30;20203;-78
2021/04/09 05:00:25;;;;;;;14.83;9.30;;;;;2.60;100981.00;;;;9692962;30;20200;-78
2021/04/09 05:05:26;;;;;;;14.30;9.10;;;;;2.50;100968.00;;;;9699863;30;20207;-79
2021/04/09 05:10:27;;;;;;;17.03;9.17;;;;;2.50;100970.00;;;;9660056;30;20224;-78
2021/04/09 05:15:29;;;;;;;15.87;9.43;;;;;2.50;100962.00;;;;9674535;30;20207;-79
2021/04/09 05:20:30;;;;;;;15.87;10.07;;;;;2.50;100970.00;;;;9690259;30;20273;-79
2021/04/09 05:25:31;;;;;;;15.53;10.73;;;;;2.50;100955.00;;;;9689067;30;20232;-78
2021/04/09 05:30:37;;;;;;;18.10;11.60;;;;;2.60;100968.00;;;;9664918;30;20223;-78
2021/04/09 05:35:39;;;;;;;17.33;11.10;;;;;2.70;100975.00;;;;9698461;30;20211;-78
2021/04/09 05:40:41;;;;;;;13.57;9.13;;;;;2.90;100975.00;;;;9689823;30;20204;-79
2021/04/09 05:45:42;;;;;;;16.23;10.10;;;;;3.10;100984.00;;;;9694451;30;20204;-78
2021/04/09 05:50:44;;;;;;;17.73;10.03;;;;;3.70;100980.00;;;;9689682;30;20245;-79
2021/04/09 05:55:45;;;;;;;15.27;8.60;;;;;4.20;100985.00;;;;9654270;30;20303;-79
2021/04/09 06:00:47;;;;;;;17.73;9.70;;;;;4.60;100977.00;;;;9701003;30;20740;-78
2021/04/09 06:05:48;;;;;;;17.70;10.23;;;;;4.90;100974.00;;;;9717293;30;20204;-78
2021/04/09 06:10:50;;;;;;;20.23;10.47;;;;;5.30;100962.00;;;;9682624;30;20305;-79
2021/04/09 06:15:52;;;;;;;21.07;10.80;;;;;5.70;100967.00;;;;9687289;30;20283;-79
2021/04/09 06:20:53;;;;;;;18.50;10.60;;;;;6.30;100962.00;;;;9679787;30;20242;-79
2021/04/09 06:25:55;;;;;;;16.57;9.67;;;;;6.90;100976.00;;;;9673809;30;20720;-78
2021/04/09 06:30:56;;;;;;;17.37;10.83;;;;;7.50;100964.00;;;;9679353;30;20314;-78
2021/04/09 06:35:58;;;;;;;17.00;9.93;;;;;7.80;100966.00;;;;9696901;30;20215;-79
2021/04/09 06:40:59;;;;;;;17.47;10.57;;;;;8.00;100964.00;;;;9690073;30;20239;-78
2021/04/09 06:46:04;;;;;;;17.67;10.50;;;;;8.30;100966.00;;;;9688188;30;20194;-79
2021/04/09 06:51:06;;;;;;;24.13;12.23;;;;;8.50;100960.00;;;;9682511;30;20231;-79
2021/04/09 06:56:07;;;;;;;20.90;11.47;;;;;9.00;100967.00;;;;9679618;30;20203;-79
2021/04/09 07:01:10;;;;;;;23.93;13.40;;;;;9.70;100967.00;;;;9680709;30;20204;-78
2021/04/09 07:06:12;;;;;;;22.67;12.90;;;;;10.30;100970.00;;;;9668332;30;20259;-78
2021/04/09 07:11:13;;;;;;;20.10;12.50;;;;;10.70;100960.00;;;;9679784;30;20216;-78
2021/04/09 07:16:15;;;;;;;21.23;11.37;;;;;10.60;100964.00;;;;9672700;30;20203;-78
2021/04/09 07:21:22;;;;;;;18.90;11.70;;;;;10.60;100958.00;;;;9692554;30;20203;-78
2021/04/09 07:27:00;;;;;;;17.20;10.43;;;;;10.60;100954.00;;;;9679340;30;20243;-78
2021/04/09 07:32:15;;;;;;;15.57;11.83;;;;;10.80;100944.00;;;;9616898;30;20243;-78
2021/04/09 07:37:17;;;;;;;18.33;10.77;;;;;11.00;100941.00;;;;9696820;30;20246;-78
2021/04/09 07:42:18;;;;;;;22.30;11.23;;;;;11.30;100944.00;;;;9682036;30;20231;-78
2021/04/09 07:47:20;;;;;;;17.97;10.07;;;;;11.50;100959.00;;;;9702765;30;20543;-78
2021/04/09 07:52:22;;;;;;;18.43;9.70;;;;;11.30;100949.00;;;;9670904;30;20224;-78
2021/04/09 07:57:30;;;;;;;16.93;9.43;;;;;11.60;100947.00;;;;9679643;30;20222;-78
2021/04/09 08:02:38;;;;;;;11.63;9.10;;;;;12.30;100947.00;;;;9655061;30;20346;-78
2021/04/09 08:07:41;;;;;;;17.17;9.60;;;;;12.80;100953.00;;;;9674533;30;20609;-78
2021/04/09 08:12:50;;;;;;;14.00;9.73;;;;;13.70;100946.00;;;;9686642;30;20230;-78
2021/04/09 08:18:03;;;;;;;13.77;9.00;;;;;13.80;100952.00;;;;9677471;30;20211;-78
2021/04/09 08:23:10;;;;;;;17.13;9.27;;;;;13.30;100951.00;;;;9687734;30;20228;-78
2021/04/09 08:28:12;;;;;;;11.07;8.50;;;;;13.40;100941.00;;;;9688029;30;20601;-78
2021/04/09 08:33:14;;;;;;;13.27;8.50;;;;;13.60;100940.00;;;;9677683;30;20240;-78
2021/04/09 08:38:16;;;;;;;14.67;9.43;;;;;13.60;100941.00;;;;9675834;30;20670;-78
2021/04/09 08:43:18;;;;;;;11.33;7.23;;;;;14.00;100952.00;;;;9686615;30;20212;-78
2021/04/09 08:48:22;;;;;;;14.00;8.37;;;;;14.50;100943.00;;;;9672564;30;20216;-78
2021/04/09 08:53:26;;;;;;;14.70;7.47;;;;;14.80;100943.00;;;;9668667;30;20244;-78
2021/04/09 08:58:30;;;;;;;9.00;6.83;;;;;15.30;100949.00;;;;9671788;30;20216;-78
2021/04/09 09:03:32;;;;;;;9.73;7.37;;;;;15.30;100946.00;;;;9686123;30;20244;-78
2021/04/09 09:08:43;;;;;;;12.70;6.77;;;;;15.10;100953.00;;;;9670104;30;20216;-78
2021/04/09 09:13:46;;;;;;;11.17;6.50;;;;;14.80;100941.00;;;;9664063;30;20224;-78
2021/04/09 09:18:49;;;;;;;10.30;6.80;;;;;15.20;100932.00;;;;9675384;30;20223;-78
2021/04/09 09:23:51;;;;;;;10.93;7.00;;;;;15.80;100928.00;;;;9658604;30;20228;-78
2021/04/09 09:29:28;;;;;;;11.63;6.33;;;;;15.80;100924.00;;;;9667767;30;20587;-78
2021/04/09 09:34:32;;;;;;;8.27;6.27;;;;;15.60;100922.00;;;;9668042;30;21049;-77
2021/04/09 09:39:37;;;;;;;9.30;6.20;;;;;15.60;100926.00;;;;9670068;30;20204;-77
2021/04/09 09:44:39;;;;;;;7.33;5.53;;;;;15.00;100927.00;;;;9686518;30;20212;-77
2021/04/09 09:55:24;;;;;;;9.43;6.00;;;;;14.60;100925.00;;;;9649600;30;20238;-78
2021/04/09 10:00:33;;;;;;;7.67;5.43;;;;;15.10;100928.00;;;;9674925;30;20826;-77
2021/04/09 10:05:36;;;;;;;9.60;5.97;;;;;15.10;100928.00;;;;9671377;30;20211;-77
2021/04/09 10:10:41;;;;;;;8.40;5.77;;;;;15.40;100921.00;;;;9677485;30;20211;-77
2021/04/09 10:15:42;;;;;;;10.10;6.20;;;;;16.00;100920.00;;;;9697833;30;20208;-77
2021/04/09 10:20:47;;;;;;;9.77;5.60;;;;;16.20;100919.00;;;;9694449;30;20206;-76
2021/04/09 10:25:54;;;;;;;9.10;6.03;;;;;16.10;100923.00;;;;9688472;30;20244;-76
2021/04/09 10:31:07;;;;;;;8.13;4.70;;;;;15.90;100908.00;;;;9689225;30;20219;-77
2021/04/09 10:36:29;;;;;;;9.00;4.33;;;;;16.30;100901.00;;;;9673550;30;20226;-77
2021/04/09 10:41:36;;;;;;;6.30;4.77;;;;;16.00;100905.00;;;;9681986;30;20204;-77
2021/04/09 10:46:43;;;;;;;7.60;5.40;;;;;16.40;100903.00;;;;9692239;30;20256;-77
2021/04/09 10:51:50;;;;;;;8.97;4.90;;;;;16.90;100897.00;;;;9680966;30;20224;-77
2021/04/09 10:56:54;;;;;;;10.40;4.60;;;;;17.20;100886.00;;;;9690248;30;20211;-77
2021/04/09 11:01:57;;;;;;;9.80;5.03;;;;;17.20;100873.00;;;;9687933;30;20193;-77
2021/04/09 11:07:01;;;;;;;8.07;5.60;;;;;17.50;100879.00;;;;9700984;30;20218;-77
2021/04/09 11:12:20;;;;;;;7.20;4.93;;;;;18.20;100885.00;;;;9677377;30;20219;-77
2021/04/09 11:17:26;;;;;;;10.95;6.03;;;;;18.30;100882.00;;;;9712683;30;20204;-77
2021/04/09 11:22:30;;;;;;;6.07;5.07;;;;;19.20;100877.00;;;;9681787;30;20199;-77
2021/04/09 11:27:33;;;;;;;9.50;4.90;;;;;19.90;100870.00;;;;9662383;30;20231;-77
2021/04/09 11:32:49;;;;;;;6.47;5.28;;;;;20.00;100873.00;;;;9699996;30;20310;-77
2021/04/09 11:37:54;;;;;;;8.25;4.40;;;;;20.40;100868.00;;;;9678990;30;20200;-77
2021/04/09 11:42:55;;;;;;;7.50;4.43;;;;;20.10;100859.00;;;;9664495;30;20259;-77
2021/04/09 11:47:56;;;;;;;5.75;3.97;;;;;20.00;100850.00;;;;9663907;30;20978;-77
2021/04/09 11:53:05;;;;;;;5.68;4.35;;;;;19.70;100858.00;;;;9673091;30;20227;-77
2021/04/09 11:58:22;;;;;;;5.75;4.38;;;;;19.90;100846.00;;;;9660281;30;20218;-77
2021/04/09 12:03:40;;;;;;;7.68;4.65;;;;;20.10;100835.00;;;;9658485;30;20207;-77
2021/04/09 12:08:42;;;;;;;10.15;5.20;;;;;20.30;100833.00;;;;9643657;30;20216;-77
2021/04/09 12:13:47;;;;;;;6.97;4.05;;;;;20.10;100837.00;;;;9699388;30;20216;-77
2021/04/09 12:18:48;;;;;;;9.68;4.13;;;;;19.70;100831.00;;;;9693068;30;20207;-77
2021/04/09 12:23:50;;;;;;;6.22;4.47;;;;;20.20;100830.00;;;;9678291;30;20211;-77
2021/04/09 12:28:53;;;;;;;8.07;4.50;;;;;19.10;100830.00;;;;9692997;30;20231;-77
2021/04/09 12:33:56;;;;;;;7.80;5.15;;;;;18.30;100820.00;;;;9691869;30;20701;-77
2021/04/09 12:38:58;;;;;;;7.00;5.05;;;;;18.70;100817.00;;;;9686569;30;20649;-77
2021/04/09 12:44:00;;;;;;;7.22;4.63;;;;;18.70;100810.00;;;;9706389;30;20200;-77
2021/04/09 12:49:04;;;;;;;9.40;5.43;;;;;18.80;100812.00;;;;9691672;30;20715;-77
2021/04/09 12:54:05;;;;;;;9.30;4.60;;;;;19.60;100805.00;;;;9677226;30;20833;-77
2021/04/09 12:59:07;;;;;;;8.35;5.57;;;;;19.50;100802.00;;;;9706673;30;20408;-77
2021/04/09 13:04:08;;;;;;;7.35;4.80;;;;;19.50;100783.00;;;;9677261;30;20268;-77
2021/04/09 13:09:10;;;;;;;9.75;5.28;;;;;21.60;100792.00;;;;9678340;30;20619;-77
2021/04/09 13:14:11;;;;;;;6.53;5.57;;;;;21.40;100777.00;;;;9706664;30;20225;-77
2021/04/09 13:19:14;;;;;;;6.35;5.60;;;;;20.90;100783.00;;;;9678217;30;20211;-77
2021/04/09 13:24:15;;;;;;;6.03;5.18;;;;;21.30;100769.00;;;;9678713;30;20215;-77
2021/04/09 13:29:16;;;;;;;16.10;5.50;;;;;20.30;100771.00;;;;9678274;30;20728;-77
2021/04/09 13:34:18;;;;;;;6.63;5.43;;;;;20.90;100755.00;;;;9672183;30;20315;-77
2021/04/09 13:39:20;;;;;;;11.10;6.25;;;;;20.60;100753.00;;;;9625745;30;20221;-77
2021/04/09 13:44:21;;;;;;;6.22;5.60;;;;;22.60;100753.00;;;;9653817;30;20980;-77
2021/04/09 13:49:23;;;;;;;6.43;5.75;;;;;20.70;100759.00;;;;9644099;30;20208;-77
2021/04/09 13:54:25;;;;;;;9.10;6.03;;;;;19.40;100749.00;;;;9661561;30;20220;-77
2021/04/09 13:59:26;;;;;;;7.60;5.57;;;;;18.30;100746.00;;;;9652226;30;20266;-77
2021/04/09 14:04:28;;;;;;;6.93;5.50;;;;;18.20;100738.00;;;;9697581;30;20262;-77
2021/04/09 14:09:29;;;;;;;8.32;5.72;;;;;17.70;100744.00;;;;9697256;30;20277;-77
2021/04/09 14:14:32;;;;;;;6.90;4.63;;;;;17.60;100730.00;;;;9665643;30;20283;-77
2021/04/09 14:19:34;;;;;;;7.03;4.80;;;;;17.70;100721.00;;;;9648381;30;20244;-77
2021/04/09 14:24:37;;;;;;;7.47;5.53;;;;;17.70;100715.00;;;;9663266;30;20224;-77
2021/04/09 14:29:40;;;;;;;14.70;5.37;;;;;18.10;100713.00;;;;9675653;30;20270;-77
2021/04/09 14:34:41;;;;;;;9.52;5.50;;;;;18.60;100704.00;;;;9704254;30;20240;-77
2021/04/09 14:39:44;;;;;;;7.07;4.88;;;;;23.10;100705.00;;;;9663493;30;20219;-77
2021/04/09 14:44:45;;;;;;;7.82;4.93;;;;;26.00;100704.00;;;;9650663;30;20650;-77
2021/04/09 14:49:46;;;;;;;8.52;4.80;;;;;21.00;100710.00;;;;9635234;30;20208;-77
2021/04/09 14:54:49;;;;;;;6.78;5.30;;;;;20.40;100694.00;;;;9663910;30;20235;-77
2021/04/09 14:59:51;;;;;;;7.45;5.20;;;;;24.90;100692.00;;;;9649503;30;20205;-77
2021/04/09 15:04:53;;;;;;;6.47;5.10;;;;;21.10;100700.00;;;;9663794;30;20214;-77
2021/04/09 15:09:54;;;;;;;8.57;5.47;;;;;19.70;100685.00;;;;9664080;30;20208;-77
2021/04/09 15:14:56;;;;;;;7.15;4.75;;;;;22.60;100680.00;;;;9682188;30;20243;-77
2021/04/09 15:20:01;;;;;;;6.95;4.93;;;;;20.50;100674.00;;;;9690595;30;20215;-77
2021/04/09 15:25:04;;;;;;;8.85;5.10;;;;;21.10;100671.00;;;;9698191;30;20302;-77
2021/04/09 15:30:12;;;;;;;9.30;5.63;;;;;19.00;100678.00;;;;9697626;30;20208;-77
2021/04/09 15:35:14;;;;;;;7.65;5.13;;;;;18.10;100670.00;;;;9698350;30;20302;-77
2021/04/09 15:40:16;;;;;;;7.32;5.65;;;;;18.40;100666.00;;;;9698391;30;20243;-77
2021/04/09 15:45:17;;;;;;;8.40;5.32;;;;;19.00;100662.00;;;;9674269;30;20662;-77
2021/04/09 15:50:19;;;;;;;5.95;4.70;;;;;19.20;100661.00;;;;9662594;30;20260;-77
2021/04/09 15:55:20;;;;;;;5.63;4.57;;;;;18.30;100673.00;;;;9661771;30;20562;-77
2021/04/09 16:00:21;;;;;;;8.35;5.03;;;;;17.50;100668.00;;;;9696664;30;20204;-77
2021/04/09 16:05:24;;;;;;;7.03;5.30;;;;;17.70;100658.00;;;;9696780;30;20191;-77
2021/04/09 16:10:26;;;;;;;9.63;5.25;;;;;18.30;100655.00;;;;9680312;30;20208;-77
2021/04/09 16:15:27;;;;;;;7.47;4.13;;;;;17.90;100656.00;;;;9676966;30;20228;-77
2021/04/09 16:20:29;;;;;;;7.82;4.43;;;;;17.80;100650.00;;;;9677074;30;20235;-77
2021/04/09 16:25:30;;;;;;;6.20;4.35;;;;;17.50;100653.00;;;;9690872;30;20292;-76
2021/04/09 16:30:32;;;;;;;9.20;4.68;;;;;17.10;100655.00;;;;9692790;30;20203;-77
2021/04/09 16:35:33;;;;;;;6.67;4.50;;;;;16.80;100647.00;;;;9661408;30;20232;-77
2021/04/09 16:40:35;;;;;;;6.60;4.47;;;;;16.90;100637.00;;;;9691658;30;20226;-77
2021/04/09 16:45:37;;;;;;;6.93;4.30;;;;;16.60;100642.00;;;;9662023;30;20212;-77
2021/04/09 16:50:39;;;;;;;8.90;4.97;;;;;16.20;100640.00;;;;9689585;30;20612;-77
2021/04/09 16:55:40;;;;;;;5.47;4.63;;;;;16.00;100645.00;;;;9674947;30;20270;-77
2021/04/09 17:00:42;;;;;;;6.40;4.53;;;;;15.90;100638.00;;;;9689293;30;20241;-77
2021/04/09 17:05:43;;;;;;;7.30;4.37;;;;;15.80;100631.00;;;;9674870;30;20208;-77
2021/04/09 17:10:44;;;;;;;6.57;4.50;;;;;15.60;100639.00;;;;9680420;30;20221;-78
2021/04/09 17:15:46;;;;;;;7.03;4.80;;;;;15.30;100628.00;;;;9671002;30;20236;-78
2021/04/09 17:20:48;;;;;;;10.37;5.47;;;;;15.10;100628.00;;;;9685765;30;20283;-78
2021/04/09 17:25:49;;;;;;;6.37;4.33;;;;;14.90;100624.00;;;;9671938;30;20573;-78
2021/04/09 17:30:51;;;;;;;8.13;4.90;;;;;14.60;100627.00;;;;9684463;30;20270;-78
2021/04/09 17:35:52;;;;;;;6.93;4.57;;;;;14.40;100616.00;;;;9697283;30;20262;-78
2021/04/09 17:40:54;;;;;;;5.27;4.40;;;;;14.20;100604.00;;;;9682727;30;20292;-78
2021/04/09 17:45:56;;;;;;;7.57;4.87;;;;;14.00;100608.00;;;;9696589;30;20212;-78
2021/04/09 17:50:58;;;;;;;9.70;5.17;;;;;13.90;100606.00;;;;9695956;30;20215;-78
2021/04/09 17:56:01;;;;;;;8.70;5.70;;;;;13.70;100609.00;;;;9682080;30;20212;-78
2021/04/09 18:01:02;;;;;;;7.67;5.20;;;;;13.50;100603.00;;;;9668497;30;20281;-79
2021/04/09 18:06:04;;;;;;;9.00;7.00;;;;;13.30;100606.00;;;;9681519;30;20211;-78
2021/04/09 18:11:05;;;;;;;10.63;8.33;;;;;13.00;100612.00;;;;9669377;30;20285;-78
2021/04/09 18:16:08;;;;;;;10.60;8.17;;;;;12.70;100616.00;;;;9699427;30;20699;-78
2021/04/09 18:21:09;;;;;;;12.43;9.03;;;;;12.50;100617.00;;;;9685222;30;20208;-78
2021/04/09 18:26:11;;;;;;;13.13;8.33;;;;;12.30;100628.00;;;;9685756;30;20231;-78
2021/04/09 18:31:12;;;;;;;15.80;8.33;;;;;12.10;100626.00;;;;9685416;30;20609;-78
2021/04/09 18:36:14;;;;;;;10.70;8.17;;;;;12.00;100624.00;;;;9705132;30;20211;-78
2021/04/09 18:41:17;;;;;;;11.27;9.03;;;;;11.80;100620.00;;;;9691844;30;20282;-78
2021/04/09 18:46:18;;;;;;;13.43;8.63;;;;;11.70;100630.00;;;;9677871;30;20208;-78
2021/04/09 18:51:21;;;;;;;11.47;8.87;;;;;11.60;100630.00;;;;9691782;30;20246;-78
2021/04/09 18:56:22;;;;;;;12.60;8.87;;;;;11.60;100631.00;;;;9705358;30;20207;-78
2021/04/09 19:01:25;;;;;;;13.23;10.63;;;;;11.50;100637.00;;;;9691258;30;20207;-78
2021/04/09 19:06:28;;;;;;;12.00;9.07;;;;;11.50;100629.00;;;;9706201;30;20272;-78
2021/04/09 19:11:29;;;;;;;14.93;9.90;;;;;11.40;100637.00;;;;9692657;30;20223;-78
2021/04/09 19:16:30;;;;;;;14.00;9.47;;;;;11.40;100647.00;;;;9692170;30;20262;-78
2021/04/09 19:21:32;;;;;;;12.43;9.70;;;;;11.30;100650.00;;;;9705726;30;20211;-78
2021/04/09 19:26:33;;;;;;;14.73;10.57;;;;;11.30;100645.00;;;;9677325;30;20231;-78
2021/04/09 19:31:34;;;;;;;14.90;10.63;;;;;11.20;100655.00;;;;9691361;30;20278;-78
2021/04/09 19:36:36;;;;;;;19.50;10.73;;;;;11.10;100653.00;;;;9709045;30;20215;-78
2021/04/09 19:41:37;;;;;;;17.83;10.87;;;;;11.10;100659.00;;;;9714125;30;20204;-78
2021/04/09 19:46:38;;;;;;;14.63;10.30;;;;;11.00;100666.00;;;;9693195;30;20215;-78
2021/04/09 19:51:40;;;;;;;12.10;10.77;;;;;11.00;100663.00;;;;9708909;30;20574;-77
2021/04/09 19:56:42;;;;;;;10.93;9.40;;;;;10.90;100664.00;;;;9693830;30;20222;-77
2021/04/09 20:01:43;;;;;;;13.23;10.50;;;;;10.80;100663.00;;;;9677049;30;20211;-78
2021/04/09 20:06:45;;;;;;;12.07;9.37;;;;;10.80;100663.00;;;;9667992;30;20226;-78
2021/04/09 20:11:46;;;;;;;16.80;11.20;;;;;10.70;100654.00;;;;9658929;30;20220;-78
2021/04/09 20:16:48;;;;;;;13.47;10.07;;;;;10.60;100655.00;;;;9650742;30;20307;-78
2021/04/09 20:21:50;;;;;;;14.30;10.27;;;;;10.60;100655.00;;;;9660454;30;20212;-78
2021/04/09 20:26:51;;;;;;;11.73;9.50;;;;;10.50;100654.00;;;;9651911;30;20240;-78
2021/04/09 20:31:52;;;;;;;12.50;9.87;;;;;10.40;100653.00;;;;9681753;30;20255;-79
2021/04/09 20:36:54;;;;;;;10.97;9.13;;;;;10.40;100653.00;;;;9667500;30;20609;-79
2021/04/09 20:41:56;;;;;;;11.10;9.17;;;;;10.30;100654.00;;;;9664079;30;20231;-78
2021/04/09 20:46:57;;;;;;;12.80;8.83;;;;;10.20;100659.00;;;;9678399;30;20700;-78
2021/04/09 20:51:59;;;;;;;11.90;8.57;;;;;10.20;100664.00;;;;9682062;30;20224;-78
2021/04/09 20:57:00;;;;;;;11.77;8.97;;;;;10.20;100650.00;;;;9699576;30;20211;-78
2021/04/09 21:02:02;;;;;;;12.77;9.20;;;;;10.10;100656.00;;;;9687574;30;20215;-78
2021/04/09 21:07:03;;;;;;;12.97;8.60;;;;;10.10;100650.00;;;;9688398;30;20211;-78
2021/04/09 21:12:05;;;;;;;13.40;9.07;;;;;10.10;100647.00;;;;9718109;30;20234;-78
2021/04/09 21:17:07;;;;;;;14.00;9.20;;;;;10.00;100641.00;;;;9717140;30;20258;-78
2021/04/09 21:22:08;;;;;;;10.97;8.80;;;;;9.90;100628.00;;;;9673498;30;20203;-78
2021/04/09 21:27:09;;;;;;;12.53;9.70;;;;;9.90;100626.00;;;;9687900;30;21066;-78
2021/04/09 21:32:11;;;;;;;9.73;8.57;;;;;9.80;100615.00;;;;9700810;30;20223;-78
2021/04/09 21:37:12;;;;;;;14.13;9.53;;;;;9.80;100611.00;;;;9702603;30;20211;-78
2021/04/09 21:42:14;;;;;;;10.90;9.70;;;;;9.70;100598.00;;;;9651225;30;20255;-78
2021/04/09 21:47:15;;;;;;;12.40;9.60;;;;;9.70;100605.00;;;;9680751;30;20362;-78
2021/04/09 21:52:16;;;;;;;11.53;9.53;;;;;9.70;100614.00;;;;9665479;30;20251;-78
2021/04/09 21:57:18;;;;;;;10.80;8.67;;;;;9.70;100610.00;;;;9665723;30;20741;-78
2021/04/09 22:02:20;;;;;;;11.40;8.90;;;;;9.70;100624.00;;;;9665921;30;20192;-78
2021/04/09 22:07:22;;;;;;;9.63;8.40;;;;;9.60;100631.00;;;;9665651;30;20208;-78
2021/04/09 22:12:24;;;;;;;13.03;9.63;;;;;9.60;100629.00;;;;9674197;30;20235;-78
2021/04/09 22:17:26;;;;;;;13.47;8.83;;;;;9.50;100629.00;;;;9724007;30;20207;-78
2021/04/09 22:22:27;;;;;;;13.67;9.67;;;;;9.40;100620.00;;;;9681452;30;20204;-78
2021/04/09 22:27:28;;;;;;;13.50;9.20;;;;;9.30;100612.00;;;;9708615;30;20751;-78
2021/04/09 22:32:31;;;;;;;13.73;9.27;;;;;9.30;100610.00;;;;9679651;30;20215;-78
2021/04/09 22:37:32;;;;;;;12.30;9.33;;;;;9.20;100621.00;;;;9673545;30;20263;-78
2021/04/09 22:42:34;;;;;;;12.57;8.67;;;;;9.20;100615.00;;;;9676313;30;20242;-78
2021/04/09 22:47:36;;;;;;;12.53;9.63;;;;;9.00;100621.00;;;;9709902;30;20204;-78
2021/04/09 22:52:38;;;;;;;13.43;9.70;;;;;9.00;100614.00;;;;9694583;30;20250;-78
2021/04/09 22:57:40;;;;;;;12.57;10.00;;;;;8.90;100605.00;;;;9694263;30;20212;-78
2021/04/09 23:02:41;;;;;;;14.13;10.60;;;;;8.80;100613.00;;;;9708229;30;20254;-78
2021/04/09 23:07:42;;;;;;;13.73;10.77;;;;;8.70;100601.00;;;;9709753;30;20199;-78
2021/04/09 23:12:44;;;;;;;15.63;10.23;;;;;8.70;100608.00;;;;9692585;30;20215;-78
2021/04/09 23:17:45;;;;;;;17.47;11.20;;;;;8.60;100617.00;;;;9707574;30;20273;-78
2021/04/09 23:22:46;;;;;;;16.57;10.63;;;;;8.70;100618.00;;;;9692212;30;20258;-78
2021/04/09 23:27:48;;;;;;;12.80;10.23;;;;;8.70;100604.00;;;;9704828;30;20223;-78
2021/04/09 23:32:49;;;;;;;17.60;10.07;;;;;8.70;100611.00;;;;9704417;30;20310;-78
2021/04/09 23:37:51;;;;;;;15.13;10.53;;;;;8.70;100612.00;;;;9703799;30;20239;-78
2021/04/09 23:42:52;;;;;;;14.20;10.47;;;;;8.70;100624.00;;;;9704878;30;20214;-78
2021/04/09 23:47:53;;;;;;;14.10;10.90;;;;;8.70;100616.00;;;;9677393;30;20238;-78
2021/04/09 23:52:55;;;;;;;16.17;11.47;;;;;8.70;100611.00;;;;9676321;30;20220;-78
2021/04/09 23:57:57;;;;;;;15.60;11.70;;;;;8.60;100607.00;;;;9689963;30;20215;-78
